Time;durP1;ratioP1;P1;durP2;ratioP2;P2;SDS_P1;SDS_P2;PMS_P1;PMS_P2;Temp;Humidity;BMP_temperature;BMP_pressure;BME280_temperature;BME280_humidity;BME280_pressure;Samples;Min_cycle;Max_cycle;Signal;HPM_P1;HPM_P2
2022/01/15 00:01:21;;;;;;;56.67;18.63;;;;;0.90;97571.00;;;;8395257;28;20262;-68
2022/01/15 00:05:24;;;;;;;59.80;19.13;;;;;1.00;97567.00;;;;8394929;28;20223;-68
2022/01/15 00:09:27;;;;;;;51.80;17.73;;;;;1.10;97565.00;;;;8394908;28;20216;-69
2022/01/15 00:14:13;;;;;;;57.27;19.87;;;;;1.10;97559.00;;;;8394929;28;20248;-68
2022/01/15 00:18:27;;;;;;;53.70;18.47;;;;;1.10;97558.00;;;;8394389;28;20244;-67
2022/01/15 00:22:31;;;;;;;51.80;17.80;;;;;1.20;97559.00;;;;8394159;28;20596;-68
2022/01/15 00:26:34;;;;;;;53.80;18.13;;;;;1.20;97556.00;;;;8394783;28;20248;-68
2022/01/15 00:30:37;;;;;;;50.13;17.70;;;;;1.20;97553.00;;;;8394465;28;20224;-67
2022/01/15 00:35:17;;;;;;;67.70;21.70;;;;;1.20;97556.00;;;;8395496;28;20225;-68
2022/01/15 00:39:21;;;;;;;62.23;19.93;;;;;1.20;97549.00;;;;8394584;28;20232;-67
2022/01/15 00:43:24;;;;;;;65.57;20.00;;;;;1.30;97558.00;;;;8394049;28;20243;-68
2022/01/15 00:47:31;;;;;;;66.30;21.37;;;;;1.30;97555.00;;;;8394263;28;20696;-68
2022/01/15 00:51:35;;;;;;;64.37;20.57;;;;;1.40;97536.00;;;;8393882;28;20225;-69
2022/01/15 00:56:10;;;;;;;68.10;21.30;;;;;1.40;97546.00;;;;8394114;28;20304;-67
2022/01/15 01:00:17;;;;;;;65.57;20.80;;;;;1.50;97550.00;;;;8394306;28;20304;-67
2022/01/15 01:04:21;;;;;;;60.90;20.37;;;;;1.50;97539.00;;;;8394195;28;20692;-68
2022/01/15 01:08:26;;;;;;;58.40;19.60;;;;;1.60;97535.00;;;;8393559;28;20224;-68
2022/01/15 01:12:36;;;;;;;77.90;23.10;;;;;1.60;97533.00;;;;8394216;28;20246;-67
2022/01/15 01:21:19;;;;;;;64.30;20.70;;;;;1.60;97538.00;;;;8399645;28;20299;-66
2022/01/15 01:25:42;;;;;;;69.43;21.40;;;;;1.60;97533.00;;;;8400431;28;20560;-68
2022/01/15 01:30:07;;;;;;;82.87;22.53;;;;;1.60;97533.00;;;;8399744;28;20252;-67
2022/01/15 01:34:13;;;;;;;78.07;21.60;;;;;1.60;97537.00;;;;8399559;28;20217;-68
2022/01/15 01:38:25;;;;;;;82.73;22.73;;;;;1.60;97532.00;;;;8396630;28;20216;-67
2022/01/15 01:42:41;;;;;;;81.40;22.13;;;;;1.60;97521.00;;;;8399541;28;20225;-67
2022/01/15 01:46:50;;;;;;;85.73;22.13;;;;;1.70;97517.00;;;;8399240;28;20224;-67
2022/01/15 01:51:24;;;;;;;76.50;22.10;;;;;1.60;97517.00;;;;8399870;28;20632;-68
2022/01/15 01:55:28;;;;;;;93.33;23.20;;;;;1.70;97513.00;;;;8398995;28;20221;-68
2022/01/15 01:59:33;;;;;;;89.37;22.27;;;;;1.70;97517.00;;;;8398323;28;20670;-68
2022/01/15 02:03:37;;;;;;;78.83;20.83;;;;;1.70;97505.00;;;;8398642;28;20268;-68
2022/01/15 02:07:40;;;;;;;71.30;18.27;;;;;1.80;97499.00;;;;8398993;28;20227;-67
2022/01/15 02:12:17;;;;;;;55.57;17.37;;;;;1.80;97498.00;;;;8398707;28;20233;-67
2022/01/15 02:16:23;;;;;;;60.07;17.97;;;;;1.90;97488.00;;;;8398653;28;20222;-67
2022/01/15 02:23:32;;;;;;;53.73;18.83;;;;;1.90;97488.00;;;;8398699;28;20659;-68
2022/01/15 02:25:26;;;;;;;50.70;15.90;;;;;2.00;97482.00;;;;8397822;28;20227;-66
2022/01/15 02:29:29;;;;;;;52.53;16.93;;;;;2.00;97476.00;;;;8397497;28;20596;-67
2022/01/15 02:34:07;;;;;;;41.03;16.93;;;;;2.00;97469.00;;;;8397642;28;20651;-67
2022/01/15 02:38:12;;;;;;;46.07;17.40;;;;;2.00;97468.00;;;;8396749;28;20234;-67
2022/01/15 02:42:15;;;;;;;48.50;16.43;;;;;2.10;97473.00;;;;8398397;28;20251;-67
2022/01/15 02:51:17;;;;;;;41.87;16.13;;;;;2.10;97472.00;;;;8396718;28;20656;-68
2022/01/15 02:55:22;;;;;;;45.20;16.17;;;;;2.10;97462.00;;;;8397778;28;20229;-67
2022/01/15 02:59:26;;;;;;;51.00;17.07;;;;;2.20;97464.00;;;;8396804;28;20679;-67
2022/01/15 03:03:29;;;;;;;47.57;17.20;;;;;2.20;97465.00;;;;8438959;22;20595;-68
2022/01/15 03:07:34;;;;;;;47.87;16.97;;;;;2.20;97464.00;;;;8448944;28;20598;-68
2022/01/15 03:11:40;;;;;;;52.33;16.87;;;;;2.20;97456.00;;;;8450996;28;20233;-68
2022/01/15 03:15:43;;;;;;;51.23;18.13;;;;;2.30;97458.00;;;;8450686;28;20224;-68
2022/01/15 03:19:46;;;;;;;55.80;16.50;;;;;2.30;97452.00;;;;8450067;28;20280;-68
2022/01/15 03:23:50;;;;;;;44.63;17.00;;;;;2.30;97466.00;;;;8448474;28;20972;-68
2022/01/15 03:27:55;;;;;;;51.43;17.87;;;;;2.30;97453.00;;;;8450478;28;20256;-67
2022/01/15 03:31:59;;;;;;;60.90;18.13;;;;;2.30;97454.00;;;;8449401;28;20317;-68
2022/01/15 03:36:02;;;;;;;50.60;16.73;;;;;2.30;97445.00;;;;8443333;28;20234;-68
2022/01/15 03:40:08;;;;;;;54.67;17.33;;;;;2.40;97446.00;;;;8447689;28;20713;-68
2022/01/15 03:44:12;;;;;;;45.77;17.03;;;;;2.40;97450.00;;;;8449152;28;20934;-68
2022/01/15 03:48:16;;;;;;;48.43;16.87;;;;;2.50;97448.00;;;;8448855;28;20226;-68
2022/01/15 03:52:19;;;;;;;52.90;16.33;;;;;2.50;97442.00;;;;8447950;28;20218;-68
2022/01/15 03:56:22;;;;;;;48.57;16.33;;;;;2.50;97445.00;;;;8449087;28;20637;-68
2022/01/15 04:00:27;;;;;;;115.80;22.07;;;;;2.50;97433.00;;;;8447199;28;20264;-68
2022/01/15 04:04:30;;;;;;;44.03;15.77;;;;;2.40;97438.00;;;;8442059;28;20312;-68
2022/01/15 04:08:33;;;;;;;45.07;16.57;;;;;2.40;97440.00;;;;8444790;28;20672;-67
2022/01/15 04:12:37;;;;;;;45.87;15.20;;;;;2.40;97439.00;;;;8445192;27;20272;-68
2022/01/15 04:16:41;;;;;;;39.90;15.67;;;;;2.50;97434.00;;;;8448395;28;20306;-68
2022/01/15 04:20:45;;;;;;;44.53;16.47;;;;;2.50;97435.00;;;;8447728;28;20254;-69
2022/01/15 04:24:48;;;;;;;39.20;14.87;;;;;2.50;97430.00;;;;8446481;28;20313;-69
2022/01/15 04:29:02;;;;;;;41.10;15.53;;;;;2.50;97425.00;;;;8440954;28;20238;-69
2022/01/15 04:33:06;;;;;;;43.37;15.67;;;;;2.50;97434.00;;;;8447635;28;20315;-69
2022/01/15 04:37:13;;;;;;;38.90;15.57;;;;;2.60;97440.00;;;;8447128;28;20298;-68
2022/01/15 04:41:16;;;;;;;42.63;15.33;;;;;2.60;97436.00;;;;8447530;28;20267;-69
2022/01/15 04:45:19;;;;;;;41.87;15.20;;;;;2.70;97436.00;;;;8449106;28;20781;-69
2022/01/15 04:49:24;;;;;;;45.90;15.87;;;;;2.70;97434.00;;;;8447996;28;20304;-69
2022/01/15 04:53:27;;;;;;;51.93;15.67;;;;;2.70;97438.00;;;;8449942;28;20239;-68
2022/01/15 04:57:30;;;;;;;40.30;16.10;;;;;2.70;97432.00;;;;8453495;28;20245;-68
2022/01/15 05:01:33;;;;;;;44.33;15.17;;;;;2.70;97428.00;;;;8453538;27;20311;-68
2022/01/15 05:05:38;;;;;;;37.37;15.87;;;;;2.80;97432.00;;;;8452928;28;20243;-68
2022/01/15 05:09:41;;;;;;;41.93;14.43;;;;;2.80;97433.00;;;;8446794;28;20590;-68
2022/01/15 05:13:44;;;;;;;46.33;15.30;;;;;2.80;97433.00;;;;8453807;28;20316;-68
2022/01/15 05:17:49;;;;;;;37.20;14.70;;;;;2.80;97435.00;;;;8452929;27;20249;-69
2022/01/15 05:21:55;;;;;;;44.27;14.90;;;;;2.80;97429.00;;;;8451898;27;20321;-69
2022/01/15 05:25:58;;;;;;;37.33;14.90;;;;;2.80;97433.00;;;;8452235;27;20252;-69
2022/01/15 05:30:02;;;;;;;38.97;15.13;;;;;2.80;97436.00;;;;8453072;27;20308;-69
2022/01/15 05:34:05;;;;;;;37.53;15.03;;;;;2.70;97440.00;;;;8454141;27;20317;-69
2022/01/15 05:38:09;;;;;;;36.27;15.50;;;;;2.80;97437.00;;;;8453727;27;20303;-70
2022/01/15 05:42:13;;;;;;;42.23;15.77;;;;;2.80;97434.00;;;;8451766;28;20637;-69
2022/01/15 05:46:16;;;;;;;40.23;14.90;;;;;2.80;97437.00;;;;8452726;28;20252;-69
2022/01/15 05:50:19;;;;;;;38.47;14.83;;;;;2.80;97440.00;;;;8452787;28;20229;-69
2022/01/15 05:54:23;;;;;;;43.40;15.30;;;;;2.80;97437.00;;;;8451902;28;20313;-70
2022/01/15 05:58:27;;;;;;;38.63;14.83;;;;;2.80;97425.00;;;;8451262;28;20771;-69
2022/01/15 06:02:30;;;;;;;40.30;14.87;;;;;2.80;97431.00;;;;8451732;28;20263;-70
2022/01/15 06:06:33;;;;;;;43.93;15.60;;;;;2.80;97426.00;;;;8450939;28;20303;-70
2022/01/15 06:10:40;;;;;;;41.67;15.40;;;;;2.90;97423.00;;;;8453263;27;20344;-70
2022/01/15 06:14:43;;;;;;;39.67;15.37;;;;;2.90;97433.00;;;;8452230;27;20263;-70
2022/01/15 06:18:46;;;;;;;38.57;15.27;;;;;2.90;97425.00;;;;8449786;27;20253;-69
2022/01/15 06:22:49;;;;;;;39.17;14.87;;;;;2.90;97424.00;;;;8447822;27;20368;-70
2022/01/15 06:26:54;;;;;;;36.23;14.43;;;;;2.90;97426.00;;;;8463446;27;20589;-69
2022/01/15 06:30:57;;;;;;;31.00;12.20;;;;;3.00;97417.00;;;;8472558;27;21220;-69
2022/01/15 06:35:08;;;;;;;39.80;14.47;;;;;3.10;97420.00;;;;8472329;27;20243;-69
2022/01/15 06:39:12;;;;;;;34.73;13.20;;;;;3.10;97415.00;;;;8475704;27;20311;-70
2022/01/15 06:43:16;;;;;;;34.20;12.43;;;;;3.10;97420.00;;;;8474362;27;20255;-69
2022/01/15 06:47:20;;;;;;;33.50;11.93;;;;;3.10;97419.00;;;;8474901;27;20324;-70
2022/01/15 06:51:24;;;;;;;33.17;11.43;;;;;3.20;97415.00;;;;8482084;27;20254;-69
2022/01/15 06:55:27;;;;;;;28.87;10.80;;;;;3.20;97410.00;;;;8475885;27;20355;-70
2022/01/15 06:59:32;;;;;;;28.27;10.70;;;;;3.30;97410.00;;;;8484914;27;20635;-70
2022/01/15 07:03:35;;;;;;;29.37;11.73;;;;;3.30;97406.00;;;;8482598;27;21645;-68
2022/01/15 07:07:44;;;;;;;32.20;12.77;;;;;3.40;97408.00;;;;8480907;27;20225;-69
2022/01/15 07:11:47;;;;;;;37.67;14.33;;;;;3.40;97414.00;;;;8479583;27;20754;-69
2022/01/15 07:15:51;;;;;;;37.60;15.50;;;;;3.40;97417.00;;;;8478027;27;20335;-68
2022/01/15 07:19:55;;;;;;;45.70;15.67;;;;;3.40;97415.00;;;;8472324;27;20311;-69
2022/01/15 07:23:58;;;;;;;38.13;16.33;;;;;3.40;97419.00;;;;8475508;27;21068;-71
2022/01/15 07:28:01;;;;;;;44.13;15.70;;;;;3.40;97438.00;;;;8468914;27;20263;-70
2022/01/15 07:32:07;;;;;;;39.47;14.90;;;;;3.30;97435.00;;;;8482703;27;20392;-70
2022/01/15 07:36:10;;;;;;;36.27;15.20;;;;;3.40;97431.00;;;;8483889;27;20303;-70
2022/01/15 07:40:14;;;;;;;40.83;15.37;;;;;3.40;97428.00;;;;8481928;27;20780;-69
2022/01/15 07:44:17;;;;;;;36.13;14.20;;;;;3.50;97427.00;;;;8479361;27;20392;-69
2022/01/15 07:48:23;;;;;;;38.23;12.97;;;;;3.50;97421.00;;;;8479681;27;20237;-69
2022/01/15 07:52:28;;;;;;;35.50;14.60;;;;;3.60;97423.00;;;;8474162;27;20311;-68
2022/01/15 07:56:31;;;;;;;29.67;13.93;;;;;3.70;97425.00;;;;8482903;27;20227;-68
2022/01/15 08:00:34;;;;;;;36.83;13.40;;;;;3.70;97410.00;;;;8479360;27;20245;-69
2022/01/15 08:04:40;;;;;;;35.63;14.60;;;;;3.80;97409.00;;;;8469575;27;20343;-69
2022/01/15 08:08:44;;;;;;;36.73;13.80;;;;;3.90;97407.00;;;;8481269;27;20232;-69
2022/01/15 08:12:48;;;;;;;36.30;13.43;;;;;4.00;97401.00;;;;8482122;27;20731;-69
2022/01/15 08:16:52;;;;;;;39.80;14.17;;;;;4.00;97398.00;;;;8478023;27;20313;-68
2022/01/15 08:20:56;;;;;;;32.00;13.97;;;;;4.00;97400.00;;;;8482078;27;20226;-68
2022/01/15 08:25:00;;;;;;;36.07;14.17;;;;;4.10;97398.00;;;;8480552;27;20854;-66
2022/01/15 08:29:04;;;;;;;63.50;14.97;;;;;4.00;97392.00;;;;8454872;27;20402;-66
2022/01/15 08:33:07;;;;;;;31.37;13.13;;;;;4.10;97395.00;;;;8469298;27;20822;-68
2022/01/15 08:37:11;;;;;;;30.83;12.87;;;;;4.30;97408.00;;;;8475202;27;20252;-69
2022/01/15 08:41:15;;;;;;;33.10;13.33;;;;;4.40;97409.00;;;;8478742;27;20648;-68
2022/01/15 08:45:19;;;;;;;31.20;14.10;;;;;4.60;97405.00;;;;8473876;27;20660;-68
2022/01/15 08:49:22;;;;;;;30.00;14.23;;;;;4.60;97403.00;;;;8481066;27;20225;-68
2022/01/15 08:53:28;;;;;;;35.77;14.50;;;;;4.80;97396.00;;;;8476169;27;20249;-68
2022/01/15 08:57:31;;;;;;;28.30;13.50;;;;;4.90;97413.00;;;;8484564;27;20226;-68
2022/01/15 09:01:34;;;;;;;24.17;11.47;;;;;5.00;97402.00;;;;8483005;27;20315;-67
2022/01/15 09:05:38;;;;;;;19.93;9.97;;;;;5.10;97409.00;;;;8480945;28;20225;-68
2022/01/15 09:09:44;;;;;;;24.83;11.70;;;;;5.40;97412.00;;;;8481790;28;20282;-67
2022/01/15 09:13:48;;;;;;;26.57;12.53;;;;;5.50;97414.00;;;;8466959;28;20748;-66
2022/01/15 09:17:51;;;;;;;21.23;11.77;;;;;5.70;97410.00;;;;8472182;27;20231;-67
2022/01/15 09:21:54;;;;;;;18.30;8.23;;;;;5.90;97413.00;;;;8476196;28;20328;-67
2022/01/15 09:25:59;;;;;;;19.97;9.53;;;;;5.90;97415.00;;;;8478243;27;20268;-67
2022/01/15 09:30:12;;;;;;;14.97;7.20;;;;;6.10;97412.00;;;;8476463;28;20346;-67
2022/01/15 09:34:15;;;;;;;14.03;7.93;;;;;6.20;97420.00;;;;8479806;28;20228;-67
2022/01/15 09:38:19;;;;;;;9.97;5.90;;;;;6.20;97433.00;;;;8480902;27;20273;-68
2022/01/15 09:42:24;;;;;;;15.90;8.27;;;;;5.90;97436.00;;;;8483028;27;20980;-68
2022/01/15 09:46:28;;;;;;;16.47;8.53;;;;;5.80;97437.00;;;;8481587;27;20649;-68
2022/01/15 09:50:34;;;;;;;17.27;7.17;;;;;5.90;97443.00;;;;8482848;27;20329;-69
2022/01/15 09:54:39;;;;;;;9.90;5.87;;;;;5.80;97438.00;;;;8488048;27;20748;-69
2022/01/15 09:58:44;;;;;;;12.20;6.30;;;;;5.70;97441.00;;;;8462220;27;20232;-68
2022/01/15 10:02:49;;;;;;;9.10;5.20;;;;;5.60;97437.00;;;;8476771;27;20226;-71
2022/01/15 10:07:14;;;;;;;9.60;4.40;;;;;5.60;97431.00;;;;8484723;27;20229;-70
2022/01/15 10:11:42;;;;;;;11.50;6.33;;;;;5.50;97431.00;;;;8481721;27;20726;-70
2022/01/15 10:15:49;;;;;;;11.93;6.23;;;;;5.50;97422.00;;;;8472949;27;20210;-70
2022/01/15 10:19:53;;;;;;;12.87;6.67;;;;;5.40;97410.00;;;;8484627;27;20221;-69
2022/01/15 10:24:00;;;;;;;11.03;5.40;;;;;5.40;97416.00;;;;8483769;27;20248;-68
2022/01/15 10:28:04;;;;;;;4.10;2.93;;;;;5.20;97413.00;;;;8493749;27;20221;-71
2022/01/15 10:32:13;;;;;;;8.60;4.27;;;;;5.30;97416.00;;;;8495760;27;20262;-74
2022/01/15 10:36:21;;;;;;;8.53;4.27;;;;;5.40;97411.00;;;;8488539;27;20313;-71
2022/01/15 10:40:27;;;;;;;11.90;5.60;;;;;5.30;97406.00;;;;8490977;27;20355;-68
2022/01/15 10:44:33;;;;;;;9.80;5.30;;;;;5.30;97398.00;;;;8495618;27;20239;-70
2022/01/15 10:48:40;;;;;;;11.33;6.10;;;;;5.10;97392.00;;;;8479282;27;20636;-70
2022/01/15 10:52:43;;;;;;;14.43;6.27;;;;;5.10;97394.00;;;;8490221;27;20228;-68
2022/01/15 10:57:05;;;;;;;13.10;6.40;;;;;5.20;97371.00;;;;8485104;27;20252;-69
2022/01/15 11:01:12;;;;;;;10.47;5.60;;;;;5.40;97373.00;;;;8493473;27;20216;-71
2022/01/15 11:05:35;;;;;;;13.53;5.77;;;;;5.50;97367.00;;;;8481537;27;20644;-69
2022/01/15 11:09:38;;;;;;;7.37;4.60;;;;;5.30;97362.00;;;;8471832;27;20271;-74
2022/01/15 11:13:45;;;;;;;9.33;5.43;;;;;5.30;97354.00;;;;8470841;27;20336;-69
2022/01/15 11:17:49;;;;;;;10.27;5.50;;;;;5.20;97345.00;;;;8483401;27;20335;-68
2022/01/15 11:21:54;;;;;;;7.83;4.00;;;;;5.10;97350.00;;;;8482432;27;20239;-70
2022/01/15 11:25:59;;;;;;;9.87;5.40;;;;;5.10;97343.00;;;;8479118;27;20314;-67
2022/01/15 11:30:03;;;;;;;9.60;4.73;;;;;5.10;97329.00;;;;8474442;27;20374;-66
2022/01/15 11:34:09;;;;;;;7.43;4.60;;;;;5.00;97333.00;;;;8472824;27;20326;-70
2022/01/15 11:38:41;;;;;;;8.57;5.33;;;;;4.80;97323.00;;;;8467355;27;20280;-67
2022/01/15 11:42:44;;;;;;;8.57;4.93;;;;;4.90;97324.00;;;;8477834;27;20259;-66
2022/01/15 11:46:49;;;;;;;7.43;4.80;;;;;5.20;97324.00;;;;8481889;27;20254;-67
2022/01/15 11:51:27;;;;;;;9.13;5.00;;;;;5.10;97330.00;;;;8480955;27;20225;-67
2022/01/15 11:55:33;;;;;;;8.37;4.60;;;;;4.90;97319.00;;;;8477529;27;20311;-70
2022/01/15 11:59:48;;;;;;;11.27;5.93;;;;;4.70;97314.00;;;;8469846;27;20248;-69
2022/01/15 12:03:51;;;;;;;11.97;6.43;;;;;4.70;97308.00;;;;8481349;27;20297;-68
2022/01/15 12:08:22;;;;;;;12.03;6.30;;;;;4.60;97295.00;;;;8479720;27;20316;-67
2022/01/15 12:12:55;;;;;;;11.30;6.33;;;;;4.80;97301.00;;;;8472488;27;20245;-68
2022/01/15 12:17:23;;;;;;;11.83;6.87;;;;;4.70;97303.00;;;;8429587;27;20221;-69
2022/01/15 12:21:52;;;;;;;11.57;6.10;;;;;4.80;97291.00;;;;8478313;27;20225;-67
2022/01/15 12:25:57;;;;;;;12.93;7.37;;;;;5.10;97285.00;;;;8471506;27;20237;-69
2022/01/15 12:30:11;;;;;;;11.90;6.60;;;;;5.30;97281.00;;;;8479057;27;20590;-69
2022/01/15 12:34:25;;;;;;;12.73;7.10;;;;;5.30;97268.00;;;;8468154;27;20575;-67
2022/01/15 12:38:29;;;;;;;11.73;6.97;;;;;5.10;97257.00;;;;8465374;27;20266;-67
2022/01/15 12:42:34;;;;;;;12.93;7.03;;;;;5.20;97257.00;;;;8479387;27;20225;-68
2022/01/15 12:46:39;;;;;;;14.07;7.47;;;;;5.40;97257.00;;;;8479565;27;20682;-67
2022/01/15 12:50:45;;;;;;;13.67;7.73;;;;;5.50;97253.00;;;;8471378;27;20263;-72
2022/01/15 12:54:51;;;;;;;14.00;7.43;;;;;5.30;97247.00;;;;8479814;28;20244;-67
2022/01/15 12:58:55;;;;;;;12.60;7.50;;;;;5.10;97252.00;;;;8472084;28;20257;-69
2022/01/15 13:03:01;;;;;;;13.67;7.57;;;;;4.90;97260.00;;;;8471642;28;20671;-68
2022/01/15 13:07:05;;;;;;;14.63;8.63;;;;;4.80;97235.00;;;;8471402;28;20320;-67
2022/01/15 13:11:19;;;;;;;13.07;7.17;;;;;4.80;97230.00;;;;8469326;27;20637;-70
2022/01/15 13:15:23;;;;;;;12.60;7.20;;;;;4.80;97216.00;;;;8473253;27;20272;-73
2022/01/15 13:19:37;;;;;;;14.43;7.17;;;;;4.70;97229.00;;;;8486529;27;20233;-74
2022/01/15 13:23:42;;;;;;;11.10;6.67;;;;;4.70;97210.00;;;;8478995;27;20263;-73
2022/01/15 13:27:45;;;;;;;11.70;6.70;;;;;4.80;97208.00;;;;8483326;27;20313;-73
2022/01/15 13:31:49;;;;;;;9.47;6.13;;;;;4.90;97215.00;;;;8492160;27;20796;-79
2022/01/15 13:35:53;;;;;;;12.07;7.37;;;;;5.00;97211.00;;;;8486337;27;20251;-78
2022/01/15 13:39:57;;;;;;;10.37;6.73;;;;;4.80;97201.00;;;;8487266;27;20696;-73
2022/01/15 13:44:06;;;;;;;13.47;7.10;;;;;4.70;97204.00;;;;8478721;27;20283;-79
2022/01/15 13:48:16;;;;;;;13.30;7.03;;;;;4.60;97193.00;;;;8485213;27;20575;-78
2022/01/15 13:56:52;;;;;;;13.80;7.33;;;;;4.80;97186.00;;;;8482769;27;20709;-70
2022/01/15 14:00:55;;;;;;;11.83;6.90;;;;;4.90;97184.00;;;;8481940;27;20268;-71
2022/01/15 14:05:13;;;;;;;12.70;7.20;;;;;4.90;97187.00;;;;8480082;27;20243;-77
2022/01/15 14:09:18;;;;;;;12.27;7.63;;;;;4.80;97184.00;;;;8482429;27;20219;-73
2022/01/15 14:13:29;;;;;;;10.87;6.80;;;;;4.60;97180.00;;;;8484030;27;20221;-77
2022/01/15 14:17:34;;;;;;;12.80;7.87;;;;;4.30;97184.00;;;;8482744;27;20719;-73
2022/01/15 14:21:52;;;;;;;15.80;9.07;;;;;4.20;97183.00;;;;8485431;27;20250;-77
2022/01/15 14:25:57;;;;;;;15.40;8.40;;;;;4.10;97174.00;;;;8483364;27;20265;-76
2022/01/15 14:30:00;;;;;;;16.43;8.30;;;;;4.10;97176.00;;;;8481992;27;20257;-73
2022/01/15 14:34:06;;;;;;;15.90;8.63;;;;;4.10;97170.00;;;;8474843;27;20259;-79
2022/01/15 14:38:09;;;;;;;14.73;7.83;;;;;4.20;97174.00;;;;8479369;27;20638;-79
2022/01/15 14:42:13;;;;;;;14.80;8.53;;;;;4.30;97175.00;;;;8485252;27;20639;-78
2022/01/15 14:46:17;;;;;;;15.23;8.67;;;;;4.40;97170.00;;;;8474139;27;20689;-76
2022/01/15 14:50:20;;;;;;;10.63;7.17;;;;;4.40;97182.00;;;;8476099;27;20315;-77
2022/01/15 14:54:24;;;;;;;14.03;8.83;;;;;4.30;97174.00;;;;8483831;27;20707;-79
2022/01/15 14:58:28;;;;;;;30.53;18.87;;;;;4.30;97166.00;;;;8483866;27;20307;-78
2022/01/15 15:02:33;;;;;;;11.17;6.93;;;;;4.20;97166.00;;;;8481660;27;20231;-79
2022/01/15 15:06:37;;;;;;;13.47;7.40;;;;;4.10;97173.00;;;;8473299;27;20258;-76
2022/01/15 15:10:41;;;;;;;11.10;6.73;;;;;4.10;97174.00;;;;8481693;27;20273;-76
2022/01/15 15:14:46;;;;;;;14.27;7.97;;;;;3.90;97162.00;;;;8479172;27;20686;-74
2022/01/15 15:18:50;;;;;;;12.80;7.83;;;;;3.90;97168.00;;;;8484686;27;20215;-73
2022/01/15 15:22:54;;;;;;;13.80;7.83;;;;;3.90;97161.00;;;;8483542;27;20309;-75
2022/01/15 15:26:57;;;;;;;13.20;8.07;;;;;3.80;97160.00;;;;8474493;27;20958;-73
2022/01/15 15:31:03;;;;;;;17.13;8.90;;;;;3.70;97160.00;;;;8479451;27;20623;-76
2022/01/15 15:35:08;;;;;;;19.03;10.43;;;;;3.70;97169.00;;;;8482050;27;20307;-80
2022/01/15 15:39:12;;;;;;;15.73;9.17;;;;;3.70;97167.00;;;;8477693;27;20255;-71
2022/01/15 15:43:16;;;;;;;22.00;10.37;;;;;3.70;97163.00;;;;8476365;27;20812;-74
2022/01/15 15:47:21;;;;;;;22.13;13.07;;;;;3.70;97163.00;;;;8480663;27;20316;-78
2022/01/15 15:51:25;;;;;;;17.77;10.33;;;;;3.70;97152.00;;;;8473406;27;20828;-73
2022/01/15 15:55:32;;;;;;;18.87;9.73;;;;;3.70;97148.00;;;;8472099;27;20617;-78
2022/01/15 15:59:35;;;;;;;18.47;11.00;;;;;3.70;97144.00;;;;8464959;27;20243;-74
2022/01/15 16:03:41;;;;;;;11.23;6.47;;;;;3.60;97145.00;;;;8480209;27;20251;-72
2022/01/15 16:07:46;;;;;;;9.13;6.30;;;;;3.60;97147.00;;;;8477151;27;20736;-73
2022/01/15 16:11:49;;;;;;;11.50;7.10;;;;;3.60;97161.00;;;;8474997;27;20268;-72
2022/01/15 16:15:52;;;;;;;11.13;6.77;;;;;3.60;97163.00;;;;8485324;27;20315;-72
2022/01/15 16:19:58;;;;;;;12.27;6.77;;;;;3.60;97159.00;;;;8468865;27;20306;-79
2022/01/15 16:24:01;;;;;;;11.83;7.20;;;;;3.60;97150.00;;;;8475172;27;21657;-75
2022/01/15 16:28:05;;;;;;;12.50;6.70;;;;;3.60;97147.00;;;;8479675;27;20308;-74
2022/01/15 16:32:28;;;;;;;12.27;7.70;;;;;3.60;97143.00;;;;8478554;27;20711;-74
2022/01/15 16:36:33;;;;;;;14.00;8.57;;;;;3.60;97135.00;;;;8470276;27;20261;-78
2022/01/15 16:40:36;;;;;;;13.00;7.67;;;;;3.60;97139.00;;;;8476261;27;20312;-73
2022/01/15 16:44:43;;;;;;;11.73;6.67;;;;;3.60;97130.00;;;;8475448;27;20247;-73
2022/01/15 16:48:47;;;;;;;12.80;7.27;;;;;3.60;97137.00;;;;8474100;27;20220;-75
2022/01/15 16:52:51;;;;;;;13.30;7.33;;;;;3.60;97131.00;;;;8469230;27;20243;-74
2022/01/15 16:56:54;;;;;;;11.53;5.97;;;;;3.60;97129.00;;;;8477880;27;20247;-76
2022/01/15 17:00:59;;;;;;;12.00;7.27;;;;;3.60;97134.00;;;;8478853;27;20231;-77
2022/01/15 17:05:03;;;;;;;20.17;10.57;;;;;3.60;97135.00;;;;8470851;28;20332;-78
2022/01/15 17:09:08;;;;;;;15.43;8.13;;;;;3.60;97123.00;;;;8474096;27;20212;-78
2022/01/15 17:13:11;;;;;;;17.40;9.47;;;;;3.60;97140.00;;;;8479297;28;20257;-76
2022/01/15 17:17:14;;;;;;;18.23;9.47;;;;;3.60;97139.00;;;;8468464;28;20330;-73
2022/01/15 17:21:18;;;;;;;17.40;9.87;;;;;3.60;97141.00;;;;8478528;28;20228;-72
2022/01/15 17:25:22;;;;;;;18.67;9.00;;;;;3.60;97147.00;;;;8472145;28;20244;-73
2022/01/15 17:29:26;;;;;;;21.37;11.27;;;;;3.70;97134.00;;;;8474762;27;20364;-78
2022/01/15 17:33:29;;;;;;;13.40;7.33;;;;;3.70;97142.00;;;;8469339;28;20316;-78
2022/01/15 17:37:33;;;;;;;14.60;7.40;;;;;3.70;97140.00;;;;8468766;28;20229;-77
2022/01/15 17:41:38;;;;;;;13.70;6.77;;;;;3.70;97136.00;;;;8476547;28;20230;-77
2022/01/15 17:45:41;;;;;;;12.67;7.30;;;;;3.80;97134.00;;;;8455583;27;20258;-79
2022/01/15 17:49:44;;;;;;;12.77;6.37;;;;;3.80;97131.00;;;;8471830;28;20925;-78
2022/01/15 17:53:48;;;;;;;14.93;7.73;;;;;3.80;97124.00;;;;8468717;28;20241;-74
2022/01/15 17:57:52;;;;;;;16.70;8.30;;;;;3.80;97117.00;;;;8471666;28;20251;-74
2022/01/15 18:01:56;;;;;;;17.90;8.33;;;;;3.70;97118.00;;;;8484351;27;20256;-77
2022/01/15 18:06:03;;;;;;;20.63;9.83;;;;;3.70;97118.00;;;;8486369;27;20228;-76
2022/01/15 18:10:07;;;;;;;24.60;12.13;;;;;3.60;97109.00;;;;8483233;27;20241;-74
2022/01/15 18:14:14;;;;;;;19.70;10.20;;;;;3.60;97108.00;;;;8482354;27;20263;-76
2022/01/15 18:18:17;;;;;;;22.67;10.87;;;;;3.70;97099.00;;;;8476845;27;20652;-75
2022/01/15 18:22:20;;;;;;;21.80;10.67;;;;;3.70;97099.00;;;;8481109;27;20245;-73
2022/01/15 18:26:24;;;;;;;27.00;11.80;;;;;3.70;97109.00;;;;8476667;27;20624;-78
2022/01/15 18:30:28;;;;;;;23.93;10.93;;;;;3.70;97108.00;;;;8502501;27;20249;-73
2022/01/15 18:34:32;;;;;;;25.67;12.37;;;;;3.80;97094.00;;;;8478639;27;20220;-74
2022/01/15 18:38:35;;;;;;;27.43;12.50;;;;;3.80;97088.00;;;;8484530;27;20228;-77
2022/01/15 18:42:38;;;;;;;21.47;12.03;;;;;3.80;97082.00;;;;8472546;27;20257;-79
2022/01/15 18:46:45;;;;;;;24.63;11.57;;;;;3.80;97075.00;;;;8485556;27;20694;-73
2022/01/15 18:50:49;;;;;;;23.97;11.80;;;;;3.80;97089.00;;;;8478059;27;20646;-76
2022/01/15 18:54:52;;;;;;;25.53;13.10;;;;;3.80;97083.00;;;;8480612;27;20251;-75
2022/01/15 18:58:55;;;;;;;24.13;12.27;;;;;3.80;97071.00;;;;8486269;27;20266;-73
2022/01/15 19:03:00;;;;;;;28.30;12.73;;;;;3.80;97068.00;;;;8477234;27;20266;-77
2022/01/15 19:07:04;;;;;;;27.87;12.93;;;;;3.80;97065.00;;;;8481647;27;20309;-75
2022/01/15 19:11:07;;;;;;;28.03;13.93;;;;;3.80;97064.00;;;;8484343;27;20228;-74
2022/01/15 19:15:14;;;;;;;45.37;18.43;;;;;3.80;97074.00;;;;8486253;27;20240;-74
2022/01/15 19:19:18;;;;;;;38.00;16.03;;;;;3.80;97082.00;;;;8484509;27;20227;-78
2022/01/15 19:23:21;;;;;;;33.43;15.10;;;;;3.70;97101.00;;;;8485293;27;20324;-73
2022/01/15 19:27:25;;;;;;;38.10;15.63;;;;;3.60;97148.00;;;;8487607;27;20643;-75
2022/01/15 19:31:28;;;;;;;50.00;17.33;;;;;3.60;97170.00;;;;8519112;27;20237;-74
2022/01/15 19:35:34;;;;;;;51.77;19.10;;;;;3.50;97180.00;;;;8451620;27;20580;-74
2022/01/15 19:39:37;;;;;;;46.37;15.43;;;;;3.50;97100.00;;;;8458616;27;20243;-73
2022/01/15 19:43:41;;;;;;;65.30;25.57;;;;;3.50;97055.00;;;;8464557;27;20251;-77
2022/01/15 19:47:46;;;;;;;48.37;18.27;;;;;3.50;97058.00;;;;8460715;27;20235;-75
2022/01/15 19:51:50;;;;;;;59.07;18.97;;;;;3.40;97067.00;;;;8474755;27;20249;-74
2022/01/15 19:55:53;;;;;;;49.60;18.07;;;;;3.40;97007.00;;;;8466206;27;20629;-75
2022/01/15 19:59:57;;;;;;;62.80;19.37;;;;;3.30;97004.00;;;;8484943;27;20244;-74
2022/01/15 20:04:00;;;;;;;60.33;18.87;;;;;3.30;97004.00;;;;8477108;27;20261;-75
2022/01/15 20:08:05;;;;;;;73.43;22.03;;;;;3.20;97025.00;;;;8471700;27;20257;-73
2022/01/15 20:12:10;;;;;;;61.30;18.40;;;;;3.10;97027.00;;;;8483572;27;20252;-74
2022/01/15 20:16:14;;;;;;;57.20;18.27;;;;;3.10;97005.00;;;;8483232;27;20255;-78
2022/01/15 20:20:18;;;;;;;63.10;18.37;;;;;3.10;97035.00;;;;8491513;27;20653;-72
2022/01/15 20:24:22;;;;;;;74.70;19.57;;;;;3.00;97040.00;;;;8483436;27;20311;-73
2022/01/15 20:28:25;;;;;;;63.90;18.63;;;;;3.00;97026.00;;;;8494630;27;20258;-78
2022/01/15 20:32:29;;;;;;;80.13;19.57;;;;;3.00;97044.00;;;;8501146;27;20214;-73
2022/01/15 20:36:32;;;;;;;60.67;18.53;;;;;3.00;97036.00;;;;8482035;27;20277;-73
2022/01/15 20:40:36;;;;;;;56.27;16.30;;;;;3.00;97046.00;;;;8460592;27;20252;-74